sensor_id;sensor_type;location;lat;lon;timestamp;P1;durP1;ratioP1;P2;durP2;ratioP2
5121;SDS011;2563;52.242;7.956;2022-10-31T00:00:52;45.00;;;17.53;;
5121;SDS011;2563;52.242;7.956;2022-10-31T00:03:18;27.43;;;14.80;;
5121;SDS011;2563;52.242;7.956;2022-10-31T00:05:44;31.63;;;15.33;;
5121;SDS011;2563;52.242;7.956;2022-10-31T00:08:11;36.20;;;17.80;;
5121;SDS011;2563;52.242;7.956;2022-10-31T00:10:39;32.33;;;16.10;;
5121;SDS011;2563;52.242;7.956;2022-10-31T00:13:06;31.80;;;15.73;;
5121;SDS011;2563;52.242;7.956;2022-10-31T00:15:33;35.67;;;15.60;;
5121;SDS011;2563;52.242;7.956;2022-10-31T00:18:02;34.17;;;16.57;;
5121;SDS011;2563;52.242;7.956;2022-10-31T00:20:28;38.47;;;15.40;;
5121;SDS011;2563;52.242;7.956;2022-10-31T00:22:56;32.00;;;15.43;;
5121;SDS011;2563;52.242;7.956;2022-10-31T00:25:23;34.20;;;15.20;;
5121;SDS011;2563;52.242;7.956;2022-10-31T00:27:49;29.63;;;15.37;;
5121;SDS011;2563;52.242;7.956;2022-10-31T00:30:14;33.63;;;16.30;;
5121;SDS011;2563;52.242;7.956;2022-10-31T00:32:39;27.30;;;14.43;;
5121;SDS011;2563;52.242;7.956;2022-10-31T00:35:05;27.27;;;13.70;;
5121;SDS011;2563;52.242;7.956;2022-10-31T00:37:30;36.90;;;16.37;;
5121;SDS011;2563;52.242;7.956;2022-10-31T00:39:56;36.23;;;15.80;;
5121;SDS011;2563;52.242;7.956;2022-10-31T00:42:21;35.20;;;15.70;;
5121;SDS011;2563;52.242;7.956;2022-10-31T00:44:46;32.60;;;15.47;;
5121;SDS011;2563;52.242;7.956;2022-10-31T00:47:11;32.57;;;15.80;;
5121;SDS011;2563;52.242;7.956;2022-10-31T00:49:37;30.57;;;14.90;;
5121;SDS011;2563;52.242;7.956;2022-10-31T00:52:02;31.83;;;15.80;;
5121;SDS011;2563;52.242;7.956;2022-10-31T00:54:27;35.67;;;16.40;;
5121;SDS011;2563;52.242;7.956;2022-10-31T00:56:53;33.00;;;15.50;;
5121;SDS011;2563;52.242;7.956;2022-10-31T00:59:18;33.23;;;16.03;;
5121;SDS011;2563;52.242;7.956;2022-10-31T01:01:43;40.60;;;15.90;;
5121;SDS011;2563;52.242;7.956;2022-10-31T01:04:09;32.73;;;17.37;;
5121;SDS011;2563;52.242;7.956;2022-10-31T01:06:34;34.93;;;16.43;;
5121;SDS011;2563;52.242;7.956;2022-10-31T01:08:59;30.47;;;15.10;;
5121;SDS011;2563;52.242;7.956;2022-10-31T01:11:24;30.17;;;15.53;;
5121;SDS011;2563;52.242;7.956;2022-10-31T01:13:51;34.43;;;15.30;;
5121;SDS011;2563;52.242;7.956;2022-10-31T01:16:18;33.00;;;15.30;;
5121;SDS011;2563;52.242;7.956;2022-10-31T01:18:46;34.97;;;16.27;;
5121;SDS011;2563;52.242;7.956;2022-10-31T01:21:16;39.20;;;16.07;;
5121;SDS011;2563;52.242;7.956;2022-10-31T01:23:43;37.33;;;15.93;;
5121;SDS011;2563;52.242;7.956;2022-10-31T01:26:13;40.90;;;16.50;;
5121;SDS011;2563;52.242;7.956;2022-10-31T01:31:18;34.40;;;15.90;;
5121;SDS011;2563;52.242;7.956;2022-10-31T01:33:45;46.17;;;17.43;;
5121;SDS011;2563;52.242;7.956;2022-10-31T01:36:11;44.20;;;17.40;;
5121;SDS011;2563;52.242;7.956;2022-10-31T01:38:45;29.40;;;16.77;;
5121;SDS011;2563;52.242;7.956;2022-10-31T01:41:12;36.37;;;16.40;;
5121;SDS011;2563;52.242;7.956;2022-10-31T01:46:08;37.53;;;16.00;;
5121;SDS011;2563;52.242;7.956;2022-10-31T01:48:33;37.20;;;15.37;;
5121;SDS011;2563;52.242;7.956;2022-10-31T01:50:59;36.50;;;15.97;;
5121;SDS011;2563;52.242;7.956;2022-10-31T01:53:25;35.47;;;16.97;;
5121;SDS011;2563;52.242;7.956;2022-10-31T01:55:50;37.43;;;17.17;;
5121;SDS011;2563;52.242;7.956;2022-10-31T01:58:18;32.90;;;16.50;;
5121;SDS011;2563;52.242;7.956;2022-10-31T02:00:48;32.40;;;16.40;;
5121;SDS011;2563;52.242;7.956;2022-10-31T02:03:17;33.40;;;16.80;;
5121;SDS011;2563;52.242;7.956;2022-10-31T02:05:45;31.90;;;16.00;;
5121;SDS011;2563;52.242;7.956;2022-10-31T02:08:23;32.80;;;14.87;;
5121;SDS011;2563;52.242;7.956;2022-10-31T02:10:52;36.00;;;17.20;;
5121;SDS011;2563;52.242;7.956;2022-10-31T02:13:19;37.00;;;17.10;;
5121;SDS011;2563;52.242;7.956;2022-10-31T02:15:47;33.50;;;15.70;;
5121;SDS011;2563;52.242;7.956;2022-10-31T02:18:16;33.10;;;17.70;;
5121;SDS011;2563;52.242;7.956;2022-10-31T02:33:58;36.03;;;17.07;;
5121;SDS011;2563;52.242;7.956;2022-10-31T02:36:32;37.60;;;16.40;;
5121;SDS011;2563;52.242;7.956;2022-10-31T02:44:05;37.70;;;17.83;;
5121;SDS011;2563;52.242;7.956;2022-10-31T02:49:24;36.17;;;17.70;;
5121;SDS011;2563;52.242;7.956;2022-10-31T02:51:54;36.33;;;16.77;;
5121;SDS011;2563;52.242;7.956;2022-10-31T02:54:23;34.20;;;16.40;;
5121;SDS011;2563;52.242;7.956;2022-10-31T02:56:51;34.10;;;15.97;;
5121;SDS011;2563;52.242;7.956;2022-10-31T02:59:22;33.50;;;17.00;;
5121;SDS011;2563;52.242;7.956;2022-10-31T03:04:32;32.63;;;16.70;;
5121;SDS011;2563;52.242;7.956;2022-10-31T03:07:21;33.60;;;15.17;;
5121;SDS011;2563;52.242;7.956;2022-10-31T03:10:04;33.70;;;17.63;;
5121;SDS011;2563;52.242;7.956;2022-10-31T03:12:40;34.87;;;16.20;;
5121;SDS011;2563;52.242;7.956;2022-10-31T03:15:12;38.17;;;18.03;;
5121;SDS011;2563;52.242;7.956;2022-10-31T03:17:54;33.17;;;15.43;;
5121;SDS011;2563;52.242;7.956;2022-10-31T03:20:20;37.40;;;17.40;;
5121;SDS011;2563;52.242;7.956;2022-10-31T03:22:52;43.97;;;17.90;;
5121;SDS011;2563;52.242;7.956;2022-10-31T03:25:20;31.53;;;16.17;;
5121;SDS011;2563;52.242;7.956;2022-10-31T03:27:48;34.30;;;17.10;;
5121;SDS011;2563;52.242;7.956;2022-10-31T03:30:16;33.90;;;15.80;;
5121;SDS011;2563;52.242;7.956;2022-10-31T03:32:49;34.90;;;16.70;;
5121;SDS011;2563;52.242;7.956;2022-10-31T03:35:17;35.17;;;16.97;;
5121;SDS011;2563;52.242;7.956;2022-10-31T03:37:46;29.80;;;15.77;;
5121;SDS011;2563;52.242;7.956;2022-10-31T03:40:14;31.50;;;16.40;;
5121;SDS011;2563;52.242;7.956;2022-10-31T03:42:42;38.30;;;16.60;;
5121;SDS011;2563;52.242;7.956;2022-10-31T03:45:12;34.10;;;15.97;;
5121;SDS011;2563;52.242;7.956;2022-10-31T03:47:42;31.67;;;15.70;;
5121;SDS011;2563;52.242;7.956;2022-10-31T03:50:08;39.70;;;15.40;;
5121;SDS011;2563;52.242;7.956;2022-10-31T03:55:26;25.97;;;12.83;;
5121;SDS011;2563;52.242;7.956;2022-10-31T03:57:57;23.30;;;12.47;;
5121;SDS011;2563;52.242;7.956;2022-10-31T04:00:28;19.13;;;10.77;;
5121;SDS011;2563;52.242;7.956;2022-10-31T04:03:06;26.23;;;11.03;;
5121;SDS011;2563;52.242;7.956;2022-10-31T04:05:35;21.23;;;11.90;;
5121;SDS011;2563;52.242;7.956;2022-10-31T04:08:03;19.87;;;11.20;;
5121;SDS011;2563;52.242;7.956;2022-10-31T04:10:33;26.70;;;11.53;;
5121;SDS011;2563;52.242;7.956;2022-10-31T04:13:06;28.40;;;12.27;;
5121;SDS011;2563;52.242;7.956;2022-10-31T04:15:36;20.43;;;11.47;;
5121;SDS011;2563;52.242;7.956;2022-10-31T04:18:03;24.40;;;12.83;;
5121;SDS011;2563;52.242;7.956;2022-10-31T04:20:33;23.93;;;11.93;;
5121;SDS011;2563;52.242;7.956;2022-10-31T04:23:22;25.47;;;12.77;;
5121;SDS011;2563;52.242;7.956;2022-10-31T04:25:50;26.73;;;12.33;;
5121;SDS011;2563;52.242;7.956;2022-10-31T04:28:15;20.87;;;11.50;;
5121;SDS011;2563;52.242;7.956;2022-10-31T04:30:40;23.80;;;11.67;;
5121;SDS011;2563;52.242;7.956;2022-10-31T04:33:06;89.70;;;12.63;;
5121;SDS011;2563;52.242;7.956;2022-10-31T04:35:31;24.37;;;12.20;;
5121;SDS011;2563;52.242;7.956;2022-10-31T04:37:57;22.47;;;11.43;;
5121;SDS011;2563;52.242;7.956;2022-10-31T04:40:22;24.70;;;11.67;;
5121;SDS011;2563;52.242;7.956;2022-10-31T04:42:47;19.53;;;11.27;;
5121;SDS011;2563;52.242;7.956;2022-10-31T04:45:12;22.10;;;12.70;;
5121;SDS011;2563;52.242;7.956;2022-10-31T04:47:38;22.57;;;11.20;;
5121;SDS011;2563;52.242;7.956;2022-10-31T04:50:03;28.77;;;13.20;;
5121;SDS011;2563;52.242;7.956;2022-10-31T04:52:29;28.67;;;12.80;;
5121;SDS011;2563;52.242;7.956;2022-10-31T04:54:54;26.40;;;13.60;;
5121;SDS011;2563;52.242;7.956;2022-10-31T04:57:19;26.07;;;13.67;;
5121;SDS011;2563;52.242;7.956;2022-10-31T04:59:45;28.17;;;13.13;;
5121;SDS011;2563;52.242;7.956;2022-10-31T05:02:10;27.73;;;13.80;;
5121;SDS011;2563;52.242;7.956;2022-10-31T05:04:35;27.43;;;13.17;;
5121;SDS011;2563;52.242;7.956;2022-10-31T05:07:01;35.77;;;15.00;;
5121;SDS011;2563;52.242;7.956;2022-10-31T05:09:26;38.33;;;14.70;;
5121;SDS011;2563;52.242;7.956;2022-10-31T05:11:51;31.90;;;14.90;;
5121;SDS011;2563;52.242;7.956;2022-10-31T05:14:16;27.30;;;13.90;;
5121;SDS011;2563;52.242;7.956;2022-10-31T05:16:42;30.57;;;14.47;;
5121;SDS011;2563;52.242;7.956;2022-10-31T05:19:07;29.23;;;14.07;;
5121;SDS011;2563;52.242;7.956;2022-10-31T05:21:32;23.60;;;12.40;;
5121;SDS011;2563;52.242;7.956;2022-10-31T05:23:58;28.93;;;12.80;;
5121;SDS011;2563;52.242;7.956;2022-10-31T05:26:23;32.20;;;13.97;;
5121;SDS011;2563;52.242;7.956;2022-10-31T05:28:48;27.70;;;12.70;;
5121;SDS011;2563;52.242;7.956;2022-10-31T05:31:13;26.50;;;12.77;;
5121;SDS011;2563;52.242;7.956;2022-10-31T05:33:39;24.50;;;13.30;;
5121;SDS011;2563;52.242;7.956;2022-10-31T05:36:04;26.57;;;13.80;;
5121;SDS011;2563;52.242;7.956;2022-10-31T05:38:30;29.47;;;12.73;;
5121;SDS011;2563;52.242;7.956;2022-10-31T05:40:55;23.33;;;12.27;;
5121;SDS011;2563;52.242;7.956;2022-10-31T05:43:26;22.80;;;12.33;;
5121;SDS011;2563;52.242;7.956;2022-10-31T05:45:55;25.60;;;12.03;;
5121;SDS011;2563;52.242;7.956;2022-10-31T05:48:21;23.10;;;10.90;;
5121;SDS011;2563;52.242;7.956;2022-10-31T05:50:47;25.33;;;12.07;;
5121;SDS011;2563;52.242;7.956;2022-10-31T05:53:13;20.03;;;11.63;;
5121;SDS011;2563;52.242;7.956;2022-10-31T05:55:38;20.63;;;12.10;;
5121;SDS011;2563;52.242;7.956;2022-10-31T05:58:05;27.37;;;11.73;;
5121;SDS011;2563;52.242;7.956;2022-10-31T06:00:31;30.73;;;13.03;;
5121;SDS011;2563;52.242;7.956;2022-10-31T06:03:03;26.97;;;13.70;;
5121;SDS011;2563;52.242;7.956;2022-10-31T06:05:30;28.50;;;12.17;;
5121;SDS011;2563;52.242;7.956;2022-10-31T06:07:56;25.33;;;13.33;;
5121;SDS011;2563;52.242;7.956;2022-10-31T06:10:21;26.70;;;12.87;;
5121;SDS011;2563;52.242;7.956;2022-10-31T06:12:47;21.73;;;12.37;;
5121;SDS011;2563;52.242;7.956;2022-10-31T06:15:13;25.40;;;12.50;;
5121;SDS011;2563;52.242;7.956;2022-10-31T06:17:39;22.60;;;11.40;;
5121;SDS011;2563;52.242;7.956;2022-10-31T06:20:04;22.77;;;11.40;;
5121;SDS011;2563;52.242;7.956;2022-10-31T06:22:31;23.07;;;11.90;;
5121;SDS011;2563;52.242;7.956;2022-10-31T06:24:56;20.40;;;10.80;;
5121;SDS011;2563;52.242;7.956;2022-10-31T06:27:22;24.00;;;12.60;;
5121;SDS011;2563;52.242;7.956;2022-10-31T06:29:47;23.97;;;11.40;;
5121;SDS011;2563;52.242;7.956;2022-10-31T06:32:13;21.43;;;11.53;;
5121;SDS011;2563;52.242;7.956;2022-10-31T06:34:39;22.60;;;10.50;;
5121;SDS011;2563;52.242;7.956;2022-10-31T06:37:06;22.93;;;11.23;;
5121;SDS011;2563;52.242;7.956;2022-10-31T06:39:32;31.90;;;12.30;;
5121;SDS011;2563;52.242;7.956;2022-10-31T06:41:57;22.40;;;11.60;;
5121;SDS011;2563;52.242;7.956;2022-10-31T06:44:23;20.93;;;13.10;;
5121;SDS011;2563;52.242;7.956;2022-10-31T06:46:48;18.77;;;10.90;;
5121;SDS011;2563;52.242;7.956;2022-10-31T06:49:14;19.23;;;11.13;;
5121;SDS011;2563;52.242;7.956;2022-10-31T06:51:39;19.90;;;11.63;;
5121;SDS011;2563;52.242;7.956;2022-10-31T06:54:04;19.60;;;11.00;;
5121;SDS011;2563;52.242;7.956;2022-10-31T06:56:30;23.80;;;12.30;;
5121;SDS011;2563;52.242;7.956;2022-10-31T06:58:55;20.07;;;11.27;;
5121;SDS011;2563;52.242;7.956;2022-10-31T07:01:20;20.00;;;11.77;;
5121;SDS011;2563;52.242;7.956;2022-10-31T07:03:45;23.73;;;11.73;;
5121;SDS011;2563;52.242;7.956;2022-10-31T07:06:11;26.13;;;12.87;;
5121;SDS011;2563;52.242;7.956;2022-10-31T07:08:36;19.50;;;11.17;;
5121;SDS011;2563;52.242;7.956;2022-10-31T07:11:01;26.80;;;12.90;;
5121;SDS011;2563;52.242;7.956;2022-10-31T07:13:27;22.53;;;11.57;;
5121;SDS011;2563;52.242;7.956;2022-10-31T07:15:53;25.17;;;12.63;;
5121;SDS011;2563;52.242;7.956;2022-10-31T07:18:23;22.70;;;13.10;;
5121;SDS011;2563;52.242;7.956;2022-10-31T07:20:49;26.53;;;13.50;;
5121;SDS011;2563;52.242;7.956;2022-10-31T07:23:14;26.30;;;13.97;;
5121;SDS011;2563;52.242;7.956;2022-10-31T07:25:40;28.37;;;14.27;;
5121;SDS011;2563;52.242;7.956;2022-10-31T07:28:05;31.13;;;14.47;;
5121;SDS011;2563;52.242;7.956;2022-10-31T07:30:32;28.53;;;14.87;;
5121;SDS011;2563;52.242;7.956;2022-10-31T07:32:57;34.10;;;15.33;;
5121;SDS011;2563;52.242;7.956;2022-10-31T07:35:23;29.57;;;14.67;;
5121;SDS011;2563;52.242;7.956;2022-10-31T07:37:50;28.93;;;14.73;;
5121;SDS011;2563;52.242;7.956;2022-10-31T07:40:16;30.40;;;14.83;;
5121;SDS011;2563;52.242;7.956;2022-10-31T07:42:46;23.70;;;13.00;;
5121;SDS011;2563;52.242;7.956;2022-10-31T07:45:16;23.10;;;12.73;;
5121;SDS011;2563;52.242;7.956;2022-10-31T07:47:44;24.63;;;13.80;;
5121;SDS011;2563;52.242;7.956;2022-10-31T07:50:13;28.70;;;13.90;;
5121;SDS011;2563;52.242;7.956;2022-10-31T07:52:44;27.23;;;13.27;;
5121;SDS011;2563;52.242;7.956;2022-10-31T07:55:09;33.70;;;15.93;;
5121;SDS011;2563;52.242;7.956;2022-10-31T07:57:35;35.30;;;15.53;;
5121;SDS011;2563;52.242;7.956;2022-10-31T08:00:04;29.80;;;14.40;;
5121;SDS011;2563;52.242;7.956;2022-10-31T08:02:30;27.00;;;14.10;;
5121;SDS011;2563;52.242;7.956;2022-10-31T08:04:56;32.00;;;13.93;;
5121;SDS011;2563;52.242;7.956;2022-10-31T08:07:21;28.37;;;14.47;;
5121;SDS011;2563;52.242;7.956;2022-10-31T08:09:47;32.30;;;14.07;;
5121;SDS011;2563;52.242;7.956;2022-10-31T08:12:12;24.90;;;12.67;;
5121;SDS011;2563;52.242;7.956;2022-10-31T08:14:37;25.83;;;12.63;;
5121;SDS011;2563;52.242;7.956;2022-10-31T08:17:03;25.30;;;13.00;;
5121;SDS011;2563;52.242;7.956;2022-10-31T08:19:28;35.17;;;14.57;;
5121;SDS011;2563;52.242;7.956;2022-10-31T08:21:53;26.97;;;12.43;;
5121;SDS011;2563;52.242;7.956;2022-10-31T08:24:23;24.23;;;12.27;;
5121;SDS011;2563;52.242;7.956;2022-10-31T08:26:49;22.70;;;11.70;;
5121;SDS011;2563;52.242;7.956;2022-10-31T08:29:14;24.37;;;12.00;;
5121;SDS011;2563;52.242;7.956;2022-10-31T08:31:40;22.97;;;11.80;;
5121;SDS011;2563;52.242;7.956;2022-10-31T08:34:06;23.13;;;11.57;;
5121;SDS011;2563;52.242;7.956;2022-10-31T08:36:31;24.67;;;12.00;;
5121;SDS011;2563;52.242;7.956;2022-10-31T08:38:57;23.17;;;11.60;;
5121;SDS011;2563;52.242;7.956;2022-10-31T08:41:22;22.57;;;11.43;;
5121;SDS011;2563;52.242;7.956;2022-10-31T08:43:47;23.93;;;11.93;;
5121;SDS011;2563;52.242;7.956;2022-10-31T08:46:13;27.20;;;12.40;;
5121;SDS011;2563;52.242;7.956;2022-10-31T08:48:38;28.93;;;14.43;;
5121;SDS011;2563;52.242;7.956;2022-10-31T08:51:04;36.03;;;16.37;;
5121;SDS011;2563;52.242;7.956;2022-10-31T08:53:29;32.50;;;16.57;;
5121;SDS011;2563;52.242;7.956;2022-10-31T08:55:55;33.77;;;17.27;;
5121;SDS011;2563;52.242;7.956;2022-10-31T08:58:21;33.33;;;16.60;;
5121;SDS011;2563;52.242;7.956;2022-10-31T09:00:48;35.17;;;17.63;;
5121;SDS011;2563;52.242;7.956;2022-10-31T09:03:16;33.40;;;17.83;;
5121;SDS011;2563;52.242;7.956;2022-10-31T09:05:55;33.20;;;17.00;;
5121;SDS011;2563;52.242;7.956;2022-10-31T09:08:24;37.77;;;17.47;;
5121;SDS011;2563;52.242;7.956;2022-10-31T09:10:50;33.13;;;17.40;;
5121;SDS011;2563;52.242;7.956;2022-10-31T09:13:17;32.50;;;16.77;;
5121;SDS011;2563;52.242;7.956;2022-10-31T09:15:45;36.43;;;18.57;;
5121;SDS011;2563;52.242;7.956;2022-10-31T09:18:12;33.73;;;17.63;;
5121;SDS011;2563;52.242;7.956;2022-10-31T09:20:39;36.20;;;18.07;;
5121;SDS011;2563;52.242;7.956;2022-10-31T09:23:06;33.93;;;16.87;;
5121;SDS011;2563;52.242;7.956;2022-10-31T09:25:34;34.80;;;17.53;;
5121;SDS011;2563;52.242;7.956;2022-10-31T09:28:01;34.43;;;17.03;;
5121;SDS011;2563;52.242;7.956;2022-10-31T09:30:29;37.37;;;18.43;;
5121;SDS011;2563;52.242;7.956;2022-10-31T09:32:59;31.90;;;17.30;;
5121;SDS011;2563;52.242;7.956;2022-10-31T09:35:26;33.00;;;18.37;;
5121;SDS011;2563;52.242;7.956;2022-10-31T09:37:58;31.50;;;17.20;;
5121;SDS011;2563;52.242;7.956;2022-10-31T09:40:32;32.90;;;17.30;;
5121;SDS011;2563;52.242;7.956;2022-10-31T09:45:40;31.00;;;15.87;;
5121;SDS011;2563;52.242;7.956;2022-10-31T09:48:26;34.00;;;16.73;;
5121;SDS011;2563;52.242;7.956;2022-10-31T09:50:54;29.73;;;16.07;;
5121;SDS011;2563;52.242;7.956;2022-10-31T09:56:02;27.50;;;14.57;;
5121;SDS011;2563;52.242;7.956;2022-10-31T09:58:43;29.00;;;16.17;;
5121;SDS011;2563;52.242;7.956;2022-10-31T10:06:44;28.33;;;15.73;;
5121;SDS011;2563;52.242;7.956;2022-10-31T10:09:11;34.10;;;15.93;;
5121;SDS011;2563;52.242;7.956;2022-10-31T10:11:44;28.23;;;15.10;;
5121;SDS011;2563;52.242;7.956;2022-10-31T10:17:19;33.03;;;15.80;;
5121;SDS011;2563;52.242;7.956;2022-10-31T10:19:53;24.43;;;13.83;;
5121;SDS011;2563;52.242;7.956;2022-10-31T10:22:32;29.73;;;14.73;;
5121;SDS011;2563;52.242;7.956;2022-10-31T10:25:22;29.60;;;13.30;;
5121;SDS011;2563;52.242;7.956;2022-10-31T10:28:06;27.40;;;13.23;;
5121;SDS011;2563;52.242;7.956;2022-10-31T10:30:40;27.97;;;15.23;;
5121;SDS011;2563;52.242;7.956;2022-10-31T10:33:09;30.67;;;14.10;;
5121;SDS011;2563;52.242;7.956;2022-10-31T10:35:45;24.93;;;12.87;;
5121;SDS011;2563;52.242;7.956;2022-10-31T10:38:19;29.53;;;13.43;;
5121;SDS011;2563;52.242;7.956;2022-10-31T10:41:18;21.50;;;11.67;;
5121;SDS011;2563;52.242;7.956;2022-10-31T10:43:48;20.90;;;9.40;;
5121;SDS011;2563;52.242;7.956;2022-10-31T10:46:19;21.17;;;9.30;;
5121;SDS011;2563;52.242;7.956;2022-10-31T10:49:32;24.50;;;9.23;;
5121;SDS011;2563;52.242;7.956;2022-10-31T10:52:06;16.10;;;7.80;;
5121;SDS011;2563;52.242;7.956;2022-10-31T10:54:37;15.80;;;8.10;;
5121;SDS011;2563;52.242;7.956;2022-10-31T11:02:50;17.73;;;7.20;;
5121;SDS011;2563;52.242;7.956;2022-10-31T11:08:02;16.37;;;7.97;;
5121;SDS011;2563;52.242;7.956;2022-10-31T11:10:29;15.97;;;6.90;;
5121;SDS011;2563;52.242;7.956;2022-10-31T11:12:59;19.83;;;7.10;;
5121;SDS011;2563;52.242;7.956;2022-10-31T11:15:28;16.60;;;7.00;;
5121;SDS011;2563;52.242;7.956;2022-10-31T11:17:56;12.50;;;6.30;;
5121;SDS011;2563;52.242;7.956;2022-10-31T11:23:10;14.63;;;7.27;;
5121;SDS011;2563;52.242;7.956;2022-10-31T11:26:18;16.93;;;7.30;;
5121;SDS011;2563;52.242;7.956;2022-10-31T11:28:43;18.30;;;8.10;;
5121;SDS011;2563;52.242;7.956;2022-10-31T11:31:11;16.90;;;8.23;;
5121;SDS011;2563;52.242;7.956;2022-10-31T11:36:16;16.03;;;7.60;;
5121;SDS011;2563;52.242;7.956;2022-10-31T11:38:49;16.80;;;8.43;;
5121;SDS011;2563;52.242;7.956;2022-10-31T11:41:24;24.37;;;9.67;;
5121;SDS011;2563;52.242;7.956;2022-10-31T11:43:56;21.53;;;8.73;;
5121;SDS011;2563;52.242;7.956;2022-10-31T11:46:44;16.77;;;8.47;;
5121;SDS011;2563;52.242;7.956;2022-10-31T11:49:26;22.57;;;9.43;;
5121;SDS011;2563;52.242;7.956;2022-10-31T11:51:56;21.97;;;8.57;;
5121;SDS011;2563;52.242;7.956;2022-10-31T11:54:25;18.60;;;9.20;;
5121;SDS011;2563;52.242;7.956;2022-10-31T11:56:54;19.37;;;8.60;;
5121;SDS011;2563;52.242;7.956;2022-10-31T12:01:53;18.60;;;8.50;;
5121;SDS011;2563;52.242;7.956;2022-10-31T12:04:23;16.13;;;8.33;;
5121;SDS011;2563;52.242;7.956;2022-10-31T12:07:10;18.97;;;8.80;;
5121;SDS011;2563;52.242;7.956;2022-10-31T12:09:36;14.47;;;7.77;;
5121;SDS011;2563;52.242;7.956;2022-10-31T12:28:58;15.97;;;7.97;;
5121;SDS011;2563;52.242;7.956;2022-10-31T12:58:32;20.67;;;11.43;;
5121;SDS011;2563;52.242;7.956;2022-10-31T13:01:09;25.53;;;11.77;;
5121;SDS011;2563;52.242;7.956;2022-10-31T13:06:29;27.33;;;12.37;;
5121;SDS011;2563;52.242;7.956;2022-10-31T13:09:00;22.13;;;10.70;;
5121;SDS011;2563;52.242;7.956;2022-10-31T13:11:33;27.17;;;12.10;;
5121;SDS011;2563;52.242;7.956;2022-10-31T13:14:03;23.43;;;12.27;;
5121;SDS011;2563;52.242;7.956;2022-10-31T13:16:45;23.53;;;11.33;;
5121;SDS011;2563;52.242;7.956;2022-10-31T13:27:52;22.47;;;10.93;;
5121;SDS011;2563;52.242;7.956;2022-10-31T13:30:21;20.60;;;12.10;;
5121;SDS011;2563;52.242;7.956;2022-10-31T13:35:23;24.47;;;12.80;;
5121;SDS011;2563;52.242;7.956;2022-10-31T13:38:01;24.73;;;12.27;;
5121;SDS011;2563;52.242;7.956;2022-10-31T13:40:32;27.40;;;14.30;;
5121;SDS011;2563;52.242;7.956;2022-10-31T13:45:49;25.37;;;12.60;;
5121;SDS011;2563;52.242;7.956;2022-10-31T13:48:19;32.20;;;11.93;;
5121;SDS011;2563;52.242;7.956;2022-10-31T13:50:57;32.33;;;12.80;;
5121;SDS011;2563;52.242;7.956;2022-10-31T13:53:37;31.57;;;13.23;;
5121;SDS011;2563;52.242;7.956;2022-10-31T13:58:33;35.10;;;14.90;;
5121;SDS011;2563;52.242;7.956;2022-10-31T14:01:02;27.20;;;13.23;;
5121;SDS011;2563;52.242;7.956;2022-10-31T14:03:35;25.37;;;13.47;;
5121;SDS011;2563;52.242;7.956;2022-10-31T14:06:02;31.30;;;14.37;;
5121;SDS011;2563;52.242;7.956;2022-10-31T14:08:29;25.63;;;13.20;;
5121;SDS011;2563;52.242;7.956;2022-10-31T14:10:59;30.60;;;13.80;;
5121;SDS011;2563;52.242;7.956;2022-10-31T14:15:57;32.40;;;13.00;;
5121;SDS011;2563;52.242;7.956;2022-10-31T14:18:35;36.00;;;14.00;;
5121;SDS011;2563;52.242;7.956;2022-10-31T14:23:51;25.13;;;12.70;;
5121;SDS011;2563;52.242;7.956;2022-10-31T14:31:41;35.97;;;13.23;;
5121;SDS011;2563;52.242;7.956;2022-10-31T14:45:04;25.67;;;12.90;;
5121;SDS011;2563;52.242;7.956;2022-10-31T14:51:01;29.70;;;12.83;;
5121;SDS011;2563;52.242;7.956;2022-10-31T14:53:41;24.00;;;13.13;;
5121;SDS011;2563;52.242;7.956;2022-10-31T14:56:13;27.80;;;13.80;;
5121;SDS011;2563;52.242;7.956;2022-10-31T14:58:47;28.50;;;13.63;;
5121;SDS011;2563;52.242;7.956;2022-10-31T15:01:32;28.03;;;14.60;;
5121;SDS011;2563;52.242;7.956;2022-10-31T15:04:07;28.50;;;13.13;;
5121;SDS011;2563;52.242;7.956;2022-10-31T15:06:45;19.27;;;11.10;;
5121;SDS011;2563;52.242;7.956;2022-10-31T15:11:48;23.00;;;11.53;;
5121;SDS011;2563;52.242;7.956;2022-10-31T15:14:30;27.03;;;13.40;;
5121;SDS011;2563;52.242;7.956;2022-10-31T15:17:01;26.67;;;13.00;;
5121;SDS011;2563;52.242;7.956;2022-10-31T15:19:28;21.20;;;11.33;;
5121;SDS011;2563;52.242;7.956;2022-10-31T15:21:56;28.13;;;11.47;;
5121;SDS011;2563;52.242;7.956;2022-10-31T15:24:29;24.67;;;12.00;;
5121;SDS011;2563;52.242;7.956;2022-10-31T15:26:58;28.33;;;11.70;;
5121;SDS011;2563;52.242;7.956;2022-10-31T15:29:25;23.50;;;11.83;;
5121;SDS011;2563;52.242;7.956;2022-10-31T15:31:52;22.73;;;11.40;;
5121;SDS011;2563;52.242;7.956;2022-10-31T15:34:20;24.80;;;10.70;;
5121;SDS011;2563;52.242;7.956;2022-10-31T15:36:49;26.20;;;12.00;;
5121;SDS011;2563;52.242;7.956;2022-10-31T15:39:15;21.80;;;11.10;;
5121;SDS011;2563;52.242;7.956;2022-10-31T15:46:52;23.97;;;10.20;;
5121;SDS011;2563;52.242;7.956;2022-10-31T15:49:27;20.87;;;10.73;;
5121;SDS011;2563;52.242;7.956;2022-10-31T15:51:57;22.50;;;10.27;;
5121;SDS011;2563;52.242;7.956;2022-10-31T15:54:34;25.60;;;11.07;;
5121;SDS011;2563;52.242;7.956;2022-10-31T15:57:01;18.67;;;10.10;;
5121;SDS011;2563;52.242;7.956;2022-10-31T15:59:27;28.13;;;12.43;;
5121;SDS011;2563;52.242;7.956;2022-10-31T16:01:59;22.53;;;10.90;;
5121;SDS011;2563;52.242;7.956;2022-10-31T16:04:26;22.30;;;10.70;;
5121;SDS011;2563;52.242;7.956;2022-10-31T16:09:26;25.80;;;10.57;;
5121;SDS011;2563;52.242;7.956;2022-10-31T16:11:52;28.93;;;11.70;;
5121;SDS011;2563;52.242;7.956;2022-10-31T16:14:21;20.60;;;10.23;;
5121;SDS011;2563;52.242;7.956;2022-10-31T16:16:50;22.70;;;11.07;;
5121;SDS011;2563;52.242;7.956;2022-10-31T16:21:50;25.73;;;10.90;;
5121;SDS011;2563;52.242;7.956;2022-10-31T16:24:25;23.67;;;10.60;;
5121;SDS011;2563;52.242;7.956;2022-10-31T16:26:58;25.77;;;10.13;;
5121;SDS011;2563;52.242;7.956;2022-10-31T16:32:04;23.07;;;10.60;;
5121;SDS011;2563;52.242;7.956;2022-10-31T16:34:30;27.37;;;10.57;;
5121;SDS011;2563;52.242;7.956;2022-10-31T16:36:55;24.30;;;11.90;;
5121;SDS011;2563;52.242;7.956;2022-10-31T16:39:20;23.17;;;10.70;;
5121;SDS011;2563;52.242;7.956;2022-10-31T16:41:47;18.63;;;10.70;;
5121;SDS011;2563;52.242;7.956;2022-10-31T16:44:18;32.70;;;11.27;;
5121;SDS011;2563;52.242;7.956;2022-10-31T16:46:43;21.73;;;10.80;;
5121;SDS011;2563;52.242;7.956;2022-10-31T16:49:09;21.63;;;11.67;;
5121;SDS011;2563;52.242;7.956;2022-10-31T16:51:35;25.13;;;11.23;;
5121;SDS011;2563;52.242;7.956;2022-10-31T16:54:00;19.97;;;10.30;;
5121;SDS011;2563;52.242;7.956;2022-10-31T16:56:27;25.53;;;11.40;;
5121;SDS011;2563;52.242;7.956;2022-10-31T16:58:54;24.53;;;10.90;;
5121;SDS011;2563;52.242;7.956;2022-10-31T17:01:19;26.00;;;10.97;;
5121;SDS011;2563;52.242;7.956;2022-10-31T17:03:45;23.30;;;11.10;;
5121;SDS011;2563;52.242;7.956;2022-10-31T17:06:11;24.83;;;11.57;;
5121;SDS011;2563;52.242;7.956;2022-10-31T17:08:37;21.53;;;10.80;;
5121;SDS011;2563;52.242;7.956;2022-10-31T17:11:02;21.23;;;10.60;;
5121;SDS011;2563;52.242;7.956;2022-10-31T17:13:28;23.33;;;11.60;;
5121;SDS011;2563;52.242;7.956;2022-10-31T17:15:58;26.30;;;11.77;;
5121;SDS011;2563;52.242;7.956;2022-10-31T17:18:25;29.73;;;11.30;;
5121;SDS011;2563;52.242;7.956;2022-10-31T17:20:54;22.63;;;11.70;;
5121;SDS011;2563;52.242;7.956;2022-10-31T17:23:23;22.80;;;11.00;;
5121;SDS011;2563;52.242;7.956;2022-10-31T17:25:48;26.73;;;11.93;;
5121;SDS011;2563;52.242;7.956;2022-10-31T17:28:14;27.20;;;12.87;;
5121;SDS011;2563;52.242;7.956;2022-10-31T17:30:39;29.87;;;12.30;;
5121;SDS011;2563;52.242;7.956;2022-10-31T17:33:06;27.20;;;11.47;;
5121;SDS011;2563;52.242;7.956;2022-10-31T17:35:35;22.40;;;11.27;;
5121;SDS011;2563;52.242;7.956;2022-10-31T17:38:00;30.60;;;13.67;;
5121;SDS011;2563;52.242;7.956;2022-10-31T17:40:25;24.67;;;12.03;;
5121;SDS011;2563;52.242;7.956;2022-10-31T17:42:51;30.03;;;11.70;;